sensor_id;sensor_type;location;lat;lon;timestamp;P1;durP1;ratioP1;P2;durP2;ratioP2
13720;SDS011;6932;51.438;5.470;2022-08-25T00:01:52;6.70;;;4.13;;
13720;SDS011;6932;51.438;5.470;2022-08-25T00:04:29;8.30;;;4.22;;
13720;SDS011;6932;51.438;5.470;2022-08-25T00:06:55;6.68;;;4.55;;
13720;SDS011;6932;51.438;5.470;2022-08-25T00:09:22;7.63;;;4.80;;
13720;SDS011;6932;51.438;5.470;2022-08-25T00:11:52;6.53;;;4.43;;
13720;SDS011;6932;51.438;5.470;2022-08-25T00:14:20;7.28;;;4.75;;
13720;SDS011;6932;51.438;5.470;2022-08-25T00:16:54;6.75;;;4.60;;
13720;SDS011;6932;51.438;5.470;2022-08-25T00:19:22;6.80;;;4.50;;
13720;SDS011;6932;51.438;5.470;2022-08-25T00:21:51;5.18;;;4.15;;
13720;SDS011;6932;51.438;5.470;2022-08-25T00:24:18;6.82;;;4.18;;
13720;SDS011;6932;51.438;5.470;2022-08-25T00:26:46;6.65;;;4.22;;
13720;SDS011;6932;51.438;5.470;2022-08-25T00:29:16;6.05;;;4.05;;
13720;SDS011;6932;51.438;5.470;2022-08-25T00:31:43;7.18;;;4.30;;
13720;SDS011;6932;51.438;5.470;2022-08-25T00:34:14;6.75;;;4.43;;
13720;SDS011;6932;51.438;5.470;2022-08-25T00:36:44;5.80;;;4.43;;
13720;SDS011;6932;51.438;5.470;2022-08-25T00:39:11;8.45;;;4.53;;
13720;SDS011;6932;51.438;5.470;2022-08-25T00:41:39;6.25;;;4.45;;
13720;SDS011;6932;51.438;5.470;2022-08-25T00:44:08;5.78;;;4.28;;
13720;SDS011;6932;51.438;5.470;2022-08-25T00:46:41;5.93;;;4.32;;
13720;SDS011;6932;51.438;5.470;2022-08-25T00:51:56;8.43;;;4.55;;
13720;SDS011;6932;51.438;5.470;2022-08-25T00:54:25;6.65;;;4.53;;
13720;SDS011;6932;51.438;5.470;2022-08-25T00:57:16;6.43;;;4.43;;
13720;SDS011;6932;51.438;5.470;2022-08-25T00:59:47;7.22;;;4.70;;
13720;SDS011;6932;51.438;5.470;2022-08-25T01:02:13;7.82;;;4.55;;
13720;SDS011;6932;51.438;5.470;2022-08-25T01:04:42;7.13;;;4.47;;
13720;SDS011;6932;51.438;5.470;2022-08-25T01:07:10;6.00;;;4.43;;
13720;SDS011;6932;51.438;5.470;2022-08-25T01:09:38;7.85;;;4.80;;
13720;SDS011;6932;51.438;5.470;2022-08-25T01:12:05;6.47;;;4.65;;
13720;SDS011;6932;51.438;5.470;2022-08-25T01:14:32;5.88;;;4.55;;
13720;SDS011;6932;51.438;5.470;2022-08-25T01:17:00;7.10;;;4.80;;
13720;SDS011;6932;51.438;5.470;2022-08-25T01:19:26;11.68;;;5.10;;
13720;SDS011;6932;51.438;5.470;2022-08-25T01:21:53;7.57;;;5.00;;
13720;SDS011;6932;51.438;5.470;2022-08-25T01:24:33;8.50;;;5.13;;
13720;SDS011;6932;51.438;5.470;2022-08-25T01:27:16;7.43;;;5.28;;
13720;SDS011;6932;51.438;5.470;2022-08-25T01:29:42;6.57;;;5.07;;
13720;SDS011;6932;51.438;5.470;2022-08-25T01:32:09;8.80;;;5.10;;
13720;SDS011;6932;51.438;5.470;2022-08-25T01:34:39;7.80;;;4.80;;
13720;SDS011;6932;51.438;5.470;2022-08-25T01:37:08;6.78;;;4.80;;
13720;SDS011;6932;51.438;5.470;2022-08-25T01:39:38;7.15;;;4.85;;
13720;SDS011;6932;51.438;5.470;2022-08-25T01:44:52;8.82;;;5.15;;
13720;SDS011;6932;51.438;5.470;2022-08-25T01:47:18;9.15;;;5.65;;
13720;SDS011;6932;51.438;5.470;2022-08-25T01:49:44;8.00;;;5.68;;
13720;SDS011;6932;51.438;5.470;2022-08-25T01:55:04;9.03;;;5.60;;
13720;SDS011;6932;51.438;5.470;2022-08-25T01:57:30;8.75;;;5.95;;
13720;SDS011;6932;51.438;5.470;2022-08-25T01:59:56;7.87;;;5.53;;
13720;SDS011;6932;51.438;5.470;2022-08-25T02:02:23;11.63;;;5.80;;
13720;SDS011;6932;51.438;5.470;2022-08-25T02:04:48;11.13;;;6.03;;
13720;SDS011;6932;51.438;5.470;2022-08-25T02:07:14;9.90;;;6.20;;
13720;SDS011;6932;51.438;5.470;2022-08-25T02:09:40;8.93;;;5.90;;
13720;SDS011;6932;51.438;5.470;2022-08-25T02:12:06;10.18;;;6.15;;
13720;SDS011;6932;51.438;5.470;2022-08-25T02:14:33;8.98;;;6.10;;
13720;SDS011;6932;51.438;5.470;2022-08-25T02:17:00;8.17;;;6.07;;
13720;SDS011;6932;51.438;5.470;2022-08-25T02:19:27;8.93;;;6.33;;
13720;SDS011;6932;51.438;5.470;2022-08-25T02:21:54;8.93;;;5.80;;
13720;SDS011;6932;51.438;5.470;2022-08-25T02:24:21;9.23;;;5.93;;
13720;SDS011;6932;51.438;5.470;2022-08-25T02:26:47;9.23;;;5.77;;
13720;SDS011;6932;51.438;5.470;2022-08-25T02:29:14;8.73;;;5.87;;
13720;SDS011;6932;51.438;5.470;2022-08-25T02:31:41;7.20;;;5.50;;
13720;SDS011;6932;51.438;5.470;2022-08-25T02:34:08;8.37;;;5.93;;
13720;SDS011;6932;51.438;5.470;2022-08-25T02:36:35;8.50;;;5.57;;
13720;SDS011;6932;51.438;5.470;2022-08-25T02:39:03;7.83;;;5.80;;
13720;SDS011;6932;51.438;5.470;2022-08-25T02:41:32;8.53;;;5.80;;
13720;SDS011;6932;51.438;5.470;2022-08-25T02:43:59;9.10;;;6.03;;
13720;SDS011;6932;51.438;5.470;2022-08-25T02:46:27;8.87;;;5.60;;
13720;SDS011;6932;51.438;5.470;2022-08-25T02:48:54;8.00;;;5.47;;
13720;SDS011;6932;51.438;5.470;2022-08-25T02:51:21;8.63;;;5.80;;
13720;SDS011;6932;51.438;5.470;2022-08-25T02:53:49;9.63;;;5.80;;
13720;SDS011;6932;51.438;5.470;2022-08-25T02:56:16;10.03;;;5.97;;
13720;SDS011;6932;51.438;5.470;2022-08-25T02:58:43;9.07;;;5.77;;
13720;SDS011;6932;51.438;5.470;2022-08-25T03:01:10;8.77;;;6.23;;
13720;SDS011;6932;51.438;5.470;2022-08-25T03:03:37;8.63;;;6.30;;
13720;SDS011;6932;51.438;5.470;2022-08-25T03:06:05;9.03;;;6.17;;
13720;SDS011;6932;51.438;5.470;2022-08-25T03:08:32;7.13;;;5.53;;
13720;SDS011;6932;51.438;5.470;2022-08-25T03:10:58;9.00;;;6.27;;
13720;SDS011;6932;51.438;5.470;2022-08-25T03:13:24;10.60;;;6.20;;
13720;SDS011;6932;51.438;5.470;2022-08-25T03:15:49;10.70;;;6.43;;
13720;SDS011;6932;51.438;5.470;2022-08-25T03:18:15;10.00;;;6.50;;
13720;SDS011;6932;51.438;5.470;2022-08-25T03:20:41;9.43;;;5.97;;
13720;SDS011;6932;51.438;5.470;2022-08-25T03:23:08;10.13;;;6.13;;
13720;SDS011;6932;51.438;5.470;2022-08-25T03:25:34;9.97;;;6.63;;
13720;SDS011;6932;51.438;5.470;2022-08-25T03:28:18;12.00;;;6.03;;
13720;SDS011;6932;51.438;5.470;2022-08-25T03:30:44;12.00;;;6.73;;
13720;SDS011;6932;51.438;5.470;2022-08-25T03:33:10;8.00;;;6.43;;
13720;SDS011;6932;51.438;5.470;2022-08-25T03:35:36;9.07;;;6.40;;
13720;SDS011;6932;51.438;5.470;2022-08-25T03:38:02;10.10;;;6.40;;
13720;SDS011;6932;51.438;5.470;2022-08-25T03:40:28;9.20;;;6.23;;
13720;SDS011;6932;51.438;5.470;2022-08-25T03:42:54;10.37;;;6.70;;
13720;SDS011;6932;51.438;5.470;2022-08-25T03:45:21;9.10;;;6.50;;
13720;SDS011;6932;51.438;5.470;2022-08-25T03:47:48;11.10;;;6.80;;
13720;SDS011;6932;51.438;5.470;2022-08-25T03:50:16;9.50;;;6.43;;
13720;SDS011;6932;51.438;5.470;2022-08-25T03:52:49;10.37;;;6.87;;
13720;SDS011;6932;51.438;5.470;2022-08-25T03:55:20;8.20;;;6.30;;
13720;SDS011;6932;51.438;5.470;2022-08-25T03:57:48;11.30;;;7.17;;
13720;SDS011;6932;51.438;5.470;2022-08-25T04:00:16;9.33;;;6.67;;
13720;SDS011;6932;51.438;5.470;2022-08-25T04:02:43;10.73;;;6.67;;
13720;SDS011;6932;51.438;5.470;2022-08-25T04:05:09;9.57;;;6.43;;
13720;SDS011;6932;51.438;5.470;2022-08-25T04:07:36;10.33;;;6.57;;
13720;SDS011;6932;51.438;5.470;2022-08-25T04:10:03;11.50;;;6.87;;
13720;SDS011;6932;51.438;5.470;2022-08-25T04:12:31;11.10;;;7.27;;
13720;SDS011;6932;51.438;5.470;2022-08-25T04:14:56;9.90;;;6.97;;
13720;SDS011;6932;51.438;5.470;2022-08-25T04:17:23;10.23;;;7.23;;
13720;SDS011;6932;51.438;5.470;2022-08-25T04:19:49;10.37;;;7.20;;
13720;SDS011;6932;51.438;5.470;2022-08-25T04:22:15;17.37;;;7.70;;
13720;SDS011;6932;51.438;5.470;2022-08-25T04:24:41;11.73;;;7.40;;
13720;SDS011;6932;51.438;5.470;2022-08-25T04:27:07;9.83;;;7.00;;
13720;SDS011;6932;51.438;5.470;2022-08-25T04:29:32;9.67;;;6.83;;
13720;SDS011;6932;51.438;5.470;2022-08-25T04:31:58;10.67;;;6.97;;
13720;SDS011;6932;51.438;5.470;2022-08-25T04:34:25;9.40;;;6.60;;
13720;SDS011;6932;51.438;5.470;2022-08-25T04:36:51;11.27;;;7.00;;
13720;SDS011;6932;51.438;5.470;2022-08-25T04:39:18;9.47;;;6.87;;
13720;SDS011;6932;51.438;5.470;2022-08-25T04:41:48;8.93;;;7.00;;
13720;SDS011;6932;51.438;5.470;2022-08-25T04:44:15;12.17;;;6.83;;
13720;SDS011;6932;51.438;5.470;2022-08-25T04:46:42;12.17;;;7.27;;
13720;SDS011;6932;51.438;5.470;2022-08-25T04:49:08;10.17;;;6.73;;
13720;SDS011;6932;51.438;5.470;2022-08-25T04:51:36;11.40;;;6.50;;
13720;SDS011;6932;51.438;5.470;2022-08-25T04:54:05;12.53;;;6.83;;
13720;SDS011;6932;51.438;5.470;2022-08-25T04:56:40;8.63;;;6.27;;
13720;SDS011;6932;51.438;5.470;2022-08-25T04:59:09;9.97;;;6.43;;
13720;SDS011;6932;51.438;5.470;2022-08-25T05:01:37;11.37;;;6.70;;
13720;SDS011;6932;51.438;5.470;2022-08-25T05:04:07;10.27;;;6.80;;
13720;SDS011;6932;51.438;5.470;2022-08-25T05:06:35;10.67;;;6.53;;
13720;SDS011;6932;51.438;5.470;2022-08-25T05:09:01;10.60;;;6.53;;
13720;SDS011;6932;51.438;5.470;2022-08-25T05:11:29;10.93;;;6.73;;
13720;SDS011;6932;51.438;5.470;2022-08-25T05:13:56;12.97;;;6.30;;
13720;SDS011;6932;51.438;5.470;2022-08-25T05:16:24;11.10;;;6.80;;
13720;SDS011;6932;51.438;5.470;2022-08-25T05:18:51;10.20;;;6.20;;
13720;SDS011;6932;51.438;5.470;2022-08-25T05:21:23;10.27;;;7.00;;
13720;SDS011;6932;51.438;5.470;2022-08-25T05:23:55;9.63;;;6.40;;
13720;SDS011;6932;51.438;5.470;2022-08-25T05:26:23;9.80;;;6.40;;
13720;SDS011;6932;51.438;5.470;2022-08-25T05:28:52;8.77;;;6.30;;
13720;SDS011;6932;51.438;5.470;2022-08-25T05:31:19;11.47;;;6.30;;
13720;SDS011;6932;51.438;5.470;2022-08-25T05:33:47;10.57;;;6.47;;
13720;SDS011;6932;51.438;5.470;2022-08-25T05:36:14;9.70;;;6.10;;
13720;SDS011;6932;51.438;5.470;2022-08-25T05:38:42;9.30;;;5.93;;
13720;SDS011;6932;51.438;5.470;2022-08-25T05:41:09;9.23;;;5.70;;
13720;SDS011;6932;51.438;5.470;2022-08-25T05:43:45;9.47;;;5.80;;
13720;SDS011;6932;51.438;5.470;2022-08-25T05:46:13;8.87;;;5.63;;
13720;SDS011;6932;51.438;5.470;2022-08-25T05:48:41;9.83;;;6.03;;
13720;SDS011;6932;51.438;5.470;2022-08-25T05:51:07;12.70;;;5.80;;
13720;SDS011;6932;51.438;5.470;2022-08-25T05:53:36;8.53;;;6.00;;
13720;SDS011;6932;51.438;5.470;2022-08-25T05:56:05;11.20;;;6.37;;
13720;SDS011;6932;51.438;5.470;2022-08-25T05:58:31;8.43;;;5.90;;
13720;SDS011;6932;51.438;5.470;2022-08-25T06:00:58;8.70;;;5.80;;
13720;SDS011;6932;51.438;5.470;2022-08-25T06:03:47;10.77;;;6.07;;
13720;SDS011;6932;51.438;5.470;2022-08-25T06:06:17;8.80;;;5.87;;
13720;SDS011;6932;51.438;5.470;2022-08-25T06:08:44;8.40;;;5.93;;
13720;SDS011;6932;51.438;5.470;2022-08-25T06:11:11;9.53;;;6.17;;
13720;SDS011;6932;51.438;5.470;2022-08-25T06:13:38;9.87;;;5.83;;
13720;SDS011;6932;51.438;5.470;2022-08-25T06:16:04;12.57;;;6.50;;
13720;SDS011;6932;51.438;5.470;2022-08-25T06:18:30;11.63;;;6.07;;
13720;SDS011;6932;51.438;5.470;2022-08-25T06:20:56;12.70;;;6.20;;
13720;SDS011;6932;51.438;5.470;2022-08-25T06:23:22;11.30;;;6.80;;
13720;SDS011;6932;51.438;5.470;2022-08-25T06:25:48;10.20;;;6.65;;
13720;SDS011;6932;51.438;5.470;2022-08-25T06:28:17;11.45;;;6.40;;
13720;SDS011;6932;51.438;5.470;2022-08-25T06:30:44;9.93;;;6.57;;
13720;SDS011;6932;51.438;5.470;2022-08-25T06:33:11;11.10;;;6.40;;
13720;SDS011;6932;51.438;5.470;2022-08-25T06:35:39;11.77;;;6.45;;
13720;SDS011;6932;51.438;5.470;2022-08-25T06:38:07;13.95;;;6.45;;
13720;SDS011;6932;51.438;5.470;2022-08-25T06:40:33;10.63;;;6.00;;
13720;SDS011;6932;51.438;5.470;2022-08-25T06:42:58;10.35;;;6.13;;
13720;SDS011;6932;51.438;5.470;2022-08-25T06:45:24;9.77;;;6.10;;
13720;SDS011;6932;51.438;5.470;2022-08-25T06:47:50;12.07;;;6.10;;
13720;SDS011;6932;51.438;5.470;2022-08-25T06:50:16;7.90;;;5.55;;
13720;SDS011;6932;51.438;5.470;2022-08-25T06:52:42;10.23;;;6.00;;
13720;SDS011;6932;51.438;5.470;2022-08-25T06:55:08;8.68;;;5.82;;
13720;SDS011;6932;51.438;5.470;2022-08-25T06:57:34;11.13;;;5.80;;
13720;SDS011;6932;51.438;5.470;2022-08-25T07:00:00;9.02;;;5.50;;
13720;SDS011;6932;51.438;5.470;2022-08-25T07:02:30;8.80;;;5.50;;
13720;SDS011;6932;51.438;5.470;2022-08-25T07:04:56;8.80;;;5.25;;
13720;SDS011;6932;51.438;5.470;2022-08-25T07:07:21;9.55;;;5.20;;
13720;SDS011;6932;51.438;5.470;2022-08-25T07:09:47;10.93;;;5.63;;
13720;SDS011;6932;51.438;5.470;2022-08-25T07:12:13;8.45;;;5.30;;
13720;SDS011;6932;51.438;5.470;2022-08-25T07:14:38;8.68;;;5.30;;
13720;SDS011;6932;51.438;5.470;2022-08-25T07:17:04;8.57;;;5.07;;
13720;SDS011;6932;51.438;5.470;2022-08-25T07:19:30;7.90;;;5.05;;
13720;SDS011;6932;51.438;5.470;2022-08-25T07:21:55;8.27;;;5.10;;
13720;SDS011;6932;51.438;5.470;2022-08-25T07:24:22;11.70;;;4.88;;
13720;SDS011;6932;51.438;5.470;2022-08-25T07:26:48;10.45;;;5.00;;
13720;SDS011;6932;51.438;5.470;2022-08-25T07:29:15;8.40;;;4.57;;
13720;SDS011;6932;51.438;5.470;2022-08-25T07:31:48;8.73;;;4.70;;
13720;SDS011;6932;51.438;5.470;2022-08-25T07:34:14;8.10;;;4.38;;
13720;SDS011;6932;51.438;5.470;2022-08-25T07:36:59;7.57;;;4.20;;
13720;SDS011;6932;51.438;5.470;2022-08-25T07:39:28;11.68;;;4.50;;
13720;SDS011;6932;51.438;5.470;2022-08-25T07:41:55;10.60;;;4.28;;
13720;SDS011;6932;51.438;5.470;2022-08-25T07:44:22;6.97;;;3.97;;
13720;SDS011;6932;51.438;5.470;2022-08-25T07:46:48;9.35;;;4.13;;
13720;SDS011;6932;51.438;5.470;2022-08-25T07:49:16;5.70;;;3.60;;
13720;SDS011;6932;51.438;5.470;2022-08-25T07:51:46;7.75;;;3.90;;
13720;SDS011;6932;51.438;5.470;2022-08-25T07:54:12;8.38;;;3.75;;
13720;SDS011;6932;51.438;5.470;2022-08-25T07:56:38;7.53;;;4.00;;
13720;SDS011;6932;51.438;5.470;2022-08-25T07:59:07;10.25;;;4.05;;
13720;SDS011;6932;51.438;5.470;2022-08-25T08:01:33;6.47;;;3.60;;
13720;SDS011;6932;51.438;5.470;2022-08-25T08:03:59;7.40;;;3.90;;
13720;SDS011;6932;51.438;5.470;2022-08-25T08:06:25;5.68;;;3.40;;
13720;SDS011;6932;51.438;5.470;2022-08-25T08:08:52;6.93;;;3.40;;
13720;SDS011;6932;51.438;5.470;2022-08-25T08:11:23;7.43;;;3.55;;
13720;SDS011;6932;51.438;5.470;2022-08-25T08:13:56;5.85;;;3.30;;
13720;SDS011;6932;51.438;5.470;2022-08-25T08:16:24;6.15;;;3.30;;
13720;SDS011;6932;51.438;5.470;2022-08-25T08:18:53;4.57;;;3.20;;
13720;SDS011;6932;51.438;5.470;2022-08-25T08:21:27;5.80;;;3.17;;
13720;SDS011;6932;51.438;5.470;2022-08-25T08:23:59;6.95;;;3.00;;
13720;SDS011;6932;51.438;5.470;2022-08-25T08:26:26;6.03;;;2.95;;
13720;SDS011;6932;51.438;5.470;2022-08-25T08:28:53;5.10;;;2.90;;
13720;SDS011;6932;51.438;5.470;2022-08-25T08:31:19;11.40;;;2.95;;
13720;SDS011;6932;51.438;5.470;2022-08-25T08:33:48;7.28;;;3.10;;
13720;SDS011;6932;51.438;5.470;2022-08-25T08:36:15;5.63;;;2.60;;
13720;SDS011;6932;51.438;5.470;2022-08-25T08:38:42;4.13;;;2.70;;
13720;SDS011;6932;51.438;5.470;2022-08-25T08:51:29;7.13;;;3.22;;
13720;SDS011;6932;51.438;5.470;2022-08-25T08:53:43;7.63;;;2.83;;
13720;SDS011;6932;51.438;5.470;2022-08-25T08:56:23;8.30;;;2.60;;
13720;SDS011;6932;51.438;5.470;2022-08-25T08:58:55;8.38;;;3.30;;
13720;SDS011;6932;51.438;5.470;2022-08-25T09:01:30;8.20;;;3.17;;
13720;SDS011;6932;51.438;5.470;2022-08-25T09:04:02;9.48;;;3.10;;
13720;SDS011;6932;51.438;5.470;2022-08-25T09:06:42;5.13;;;2.70;;
13720;SDS011;6932;51.438;5.470;2022-08-25T09:09:13;7.85;;;2.90;;
13720;SDS011;6932;51.438;5.470;2022-08-25T09:11:48;5.97;;;2.78;;
13720;SDS011;6932;51.438;5.470;2022-08-25T09:14:44;3.78;;;2.70;;
13720;SDS011;6932;51.438;5.470;2022-08-25T09:17:42;4.00;;;2.60;;
13720;SDS011;6932;51.438;5.470;2022-08-25T09:20:45;6.95;;;2.80;;
13720;SDS011;6932;51.438;5.470;2022-08-25T09:29:11;5.22;;;2.72;;
13720;SDS011;6932;51.438;5.470;2022-08-25T09:31:45;7.80;;;2.50;;
13720;SDS011;6932;51.438;5.470;2022-08-25T09:34:16;4.13;;;2.50;;
13720;SDS011;6932;51.438;5.470;2022-08-25T09:36:46;3.97;;;2.40;;
13720;SDS011;6932;51.438;5.470;2022-08-25T09:39:16;4.97;;;2.42;;
13720;SDS011;6932;51.438;5.470;2022-08-25T09:41:47;3.72;;;2.40;;
13720;SDS011;6932;51.438;5.470;2022-08-25T09:49:45;7.28;;;2.20;;
13720;SDS011;6932;51.438;5.470;2022-08-25T09:52:35;4.70;;;2.20;;
13720;SDS011;6932;51.438;5.470;2022-08-25T09:57:34;3.53;;;2.20;;
13720;SDS011;6932;51.438;5.470;2022-08-25T10:11:08;6.72;;;2.70;;
13720;SDS011;6932;51.438;5.470;2022-08-25T10:13:46;5.43;;;2.78;;
13720;SDS011;6932;51.438;5.470;2022-08-25T10:16:26;4.65;;;2.85;;
13720;SDS011;6932;51.438;5.470;2022-08-25T10:19:07;4.57;;;2.55;;
13720;SDS011;6932;51.438;5.470;2022-08-25T10:22:01;4.72;;;2.50;;
13720;SDS011;6932;51.438;5.470;2022-08-25T10:24:31;5.03;;;2.40;;
13720;SDS011;6932;51.438;5.470;2022-08-25T10:32:50;6.70;;;2.50;;
13720;SDS011;6932;51.438;5.470;2022-08-25T10:35:32;3.92;;;2.38;;
13720;SDS011;6932;51.438;5.470;2022-08-25T10:38:37;3.28;;;2.42;;
13720;SDS011;6932;51.438;5.470;2022-08-25T10:44:18;4.55;;;2.50;;
13720;SDS011;6932;51.438;5.470;2022-08-25T10:47:37;4.80;;;2.53;;
13720;SDS011;6932;51.438;5.470;2022-08-25T10:50:29;3.72;;;2.30;;
13720;SDS011;6932;51.438;5.470;2022-08-25T10:56:17;3.67;;;2.10;;
13720;SDS011;6932;51.438;5.470;2022-08-25T11:01:55;5.47;;;2.65;;
13720;SDS011;6932;51.438;5.470;2022-08-25T11:04:45;3.33;;;2.25;;
13720;SDS011;6932;51.438;5.470;2022-08-25T11:07:22;5.13;;;2.55;;
13720;SDS011;6932;51.438;5.470;2022-08-25T11:09:59;4.82;;;2.33;;
13720;SDS011;6932;51.438;5.470;2022-08-25T11:12:50;6.35;;;2.45;;
13720;SDS011;6932;51.438;5.470;2022-08-25T11:15:29;4.10;;;2.20;;
13720;SDS011;6932;51.438;5.470;2022-08-25T11:18:06;3.50;;;2.28;;
13720;SDS011;6932;51.438;5.470;2022-08-25T11:20:39;5.47;;;2.30;;
13720;SDS011;6932;51.438;5.470;2022-08-25T11:23:15;5.57;;;2.60;;
13720;SDS011;6932;51.438;5.470;2022-08-25T11:26:00;3.92;;;2.08;;
13720;SDS011;6932;51.438;5.470;2022-08-25T11:31:29;4.30;;;2.25;;
13720;SDS011;6932;51.438;5.470;2022-08-25T11:34:02;4.28;;;2.40;;
13720;SDS011;6932;51.438;5.470;2022-08-25T11:36:35;2.85;;;2.10;;
13720;SDS011;6932;51.438;5.470;2022-08-25T11:51:05;3.63;;;2.17;;
13720;SDS011;6932;51.438;5.470;2022-08-25T11:53:51;2.67;;;2.08;;
13720;SDS011;6932;51.438;5.470;2022-08-25T11:56:52;4.40;;;2.20;;
13720;SDS011;6932;51.438;5.470;2022-08-25T12:02:29;4.88;;;2.20;;
13720;SDS011;6932;51.438;5.470;2022-08-25T12:05:03;3.20;;;2.30;;
13720;SDS011;6932;51.438;5.470;2022-08-25T12:16:04;4.47;;;2.33;;
13720;SDS011;6932;51.438;5.470;2022-08-25T12:18:51;5.72;;;2.42;;
13720;SDS011;6932;51.438;5.470;2022-08-25T12:21:27;3.60;;;2.20;;
13720;SDS011;6932;51.438;5.470;2022-08-25T12:24:10;3.10;;;2.17;;
13720;SDS011;6932;51.438;5.470;2022-08-25T12:26:50;4.78;;;2.22;;
13720;SDS011;6932;51.438;5.470;2022-08-25T12:29:27;4.30;;;2.30;;
13720;SDS011;6932;51.438;5.470;2022-08-25T12:38:09;4.35;;;2.40;;
13720;SDS011;6932;51.438;5.470;2022-08-25T12:54:41;3.75;;;2.22;;
13720;SDS011;6932;51.438;5.470;2022-08-25T13:00:11;3.42;;;2.30;;
13720;SDS011;6932;51.438;5.470;2022-08-25T13:11:22;4.25;;;2.20;;
13720;SDS011;6932;51.438;5.470;2022-08-25T13:14:20;4.22;;;2.42;;
13720;SDS011;6932;51.438;5.470;2022-08-25T13:17:01;5.57;;;2.42;;
13720;SDS011;6932;51.438;5.470;2022-08-25T13:19:27;3.47;;;2.17;;
13720;SDS011;6932;51.438;5.470;2022-08-25T13:21:53;6.07;;;2.15;;
13720;SDS011;6932;51.438;5.470;2022-08-25T13:24:23;6.78;;;2.30;;
13720;SDS011;6932;51.438;5.470;2022-08-25T13:27:05;5.07;;;2.35;;
13720;SDS011;6932;51.438;5.470;2022-08-25T13:29:55;2.85;;;2.20;;
13720;SDS011;6932;51.438;5.470;2022-08-25T13:32:31;3.70;;;2.40;;
13720;SDS011;6932;51.438;5.470;2022-08-25T13:35:06;3.03;;;2.40;;
13720;SDS011;6932;51.438;5.470;2022-08-25T13:37:42;3.63;;;2.35;;
13720;SDS011;6932;51.438;5.470;2022-08-25T13:43:00;4.22;;;2.63;;
13720;SDS011;6932;51.438;5.470;2022-08-25T13:45:31;3.53;;;2.30;;
13720;SDS011;6932;51.438;5.470;2022-08-25T13:48:02;4.20;;;2.42;;
13720;SDS011;6932;51.438;5.470;2022-08-25T13:50:30;3.03;;;2.40;;
13720;SDS011;6932;51.438;5.470;2022-08-25T13:53:04;2.47;;;2.17;;
13720;SDS011;6932;51.438;5.470;2022-08-25T13:58:13;2.60;;;2.20;;
13720;SDS011;6932;51.438;5.470;2022-08-25T14:00:47;5.15;;;2.30;;
13720;SDS011;6932;51.438;5.470;2022-08-25T14:03:39;4.47;;;2.45;;
13720;SDS011;6932;51.438;5.470;2022-08-25T14:08:43;4.32;;;2.47;;
13720;SDS011;6932;51.438;5.470;2022-08-25T14:11:31;2.80;;;2.13;;
13720;SDS011;6932;51.438;5.470;2022-08-25T14:16:48;4.25;;;2.40;;
13720;SDS011;6932;51.438;5.470;2022-08-25T14:19:42;6.15;;;2.55;;
13720;SDS011;6932;51.438;5.470;2022-08-25T14:22:11;3.60;;;2.25;;
13720;SDS011;6932;51.438;5.470;2022-08-25T14:24:38;6.55;;;2.78;;
13720;SDS011;6932;51.438;5.470;2022-08-25T14:27:04;4.60;;;2.38;;
13720;SDS011;6932;51.438;5.470;2022-08-25T14:29:30;4.07;;;2.33;;
13720;SDS011;6932;51.438;5.470;2022-08-25T14:31:56;4.63;;;2.10;;
13720;SDS011;6932;51.438;5.470;2022-08-25T14:34:24;3.58;;;2.15;;
13720;SDS011;6932;51.438;5.470;2022-08-25T14:36:56;4.07;;;2.20;;
13720;SDS011;6932;51.438;5.470;2022-08-25T14:39:25;3.45;;;2.20;;
13720;SDS011;6932;51.438;5.470;2022-08-25T14:41:53;5.10;;;2.67;;
13720;SDS011;6932;51.438;5.470;2022-08-25T14:44:19;2.90;;;2.30;;
13720;SDS011;6932;51.438;5.470;2022-08-25T14:46:49;4.72;;;2.50;;
13720;SDS011;6932;51.438;5.470;2022-08-25T14:49:23;5.03;;;2.30;;
13720;SDS011;6932;51.438;5.470;2022-08-25T14:51:58;4.07;;;2.30;;
13720;SDS011;6932;51.438;5.470;2022-08-25T14:54:43;3.97;;;2.45;;
13720;SDS011;6932;51.438;5.470;2022-08-25T14:57:08;3.53;;;2.20;;
13720;SDS011;6932;51.438;5.470;2022-08-25T14:59:34;3.08;;;2.38;;
13720;SDS011;6932;51.438;5.470;2022-08-25T15:02:00;3.50;;;2.20;;
13720;SDS011;6932;51.438;5.470;2022-08-25T15:04:26;2.95;;;2.30;;
13720;SDS011;6932;51.438;5.470;2022-08-25T15:06:54;2.90;;;2.15;;
13720;SDS011;6932;51.438;5.470;2022-08-25T15:09:23;2.45;;;2.25;;
13720;SDS011;6932;51.438;5.470;2022-08-25T15:11:50;4.15;;;2.50;;
13720;SDS011;6932;51.438;5.470;2022-08-25T15:14:19;5.03;;;2.45;;
13720;SDS011;6932;51.438;5.470;2022-08-25T15:16:49;3.33;;;2.45;;
13720;SDS011;6932;51.438;5.470;2022-08-25T15:19:19;3.67;;;2.40;;
13720;SDS011;6932;51.438;5.470;2022-08-25T15:21:49;3.05;;;2.13;;
13720;SDS011;6932;51.438;5.470;2022-08-25T15:24:16;2.97;;;2.40;;
13720;SDS011;6932;51.438;5.470;2022-08-25T15:29:09;4.68;;;2.38;;
13720;SDS011;6932;51.438;5.470;2022-08-25T15:31:35;3.35;;;2.20;;
13720;SDS011;6932;51.438;5.470;2022-08-25T15:34:04;5.97;;;2.42;;
13720;SDS011;6932;51.438;5.470;2022-08-25T15:36:32;7.22;;;2.60;;
13720;SDS011;6932;51.438;5.470;2022-08-25T15:38:58;3.47;;;2.40;;
13720;SDS011;6932;51.438;5.470;2022-08-25T15:41:24;5.45;;;2.55;;
13720;SDS011;6932;51.438;5.470;2022-08-25T15:43:49;4.28;;;2.63;;
13720;SDS011;6932;51.438;5.470;2022-08-25T15:46:16;5.57;;;2.72;;
13720;SDS011;6932;51.438;5.470;2022-08-25T15:48:49;4.68;;;2.58;;
13720;SDS011;6932;51.438;5.470;2022-08-25T15:51:16;4.63;;;2.20;;
13720;SDS011;6932;51.438;5.470;2022-08-25T15:53:43;5.10;;;2.65;;
13720;SDS011;6932;51.438;5.470;2022-08-25T15:56:10;4.30;;;2.67;;
13720;SDS011;6932;51.438;5.470;2022-08-25T15:58:42;4.20;;;2.50;;
13720;SDS011;6932;51.438;5.470;2022-08-25T16:01:13;3.65;;;2.40;;
13720;SDS011;6932;51.438;5.470;2022-08-25T16:03:41;4.18;;;2.40;;
13720;SDS011;6932;51.438;5.470;2022-08-25T16:06:07;4.35;;;2.50;;
13720;SDS011;6932;51.438;5.470;2022-08-25T16:08:34;3.40;;;2.10;;
13720;SDS011;6932;51.438;5.470;2022-08-25T16:11:01;5.13;;;2.90;;
13720;SDS011;6932;51.438;5.470;2022-08-25T16:13:27;4.65;;;2.80;;
13720;SDS011;6932;51.438;5.470;2022-08-25T16:15:53;3.72;;;2.67;;
13720;SDS011;6932;51.438;5.470;2022-08-25T16:18:21;4.43;;;2.55;;
13720;SDS011;6932;51.438;5.470;2022-08-25T16:20:47;5.03;;;2.60;;
13720;SDS011;6932;51.438;5.470;2022-08-25T16:23:15;4.57;;;2.42;;
13720;SDS011;6932;51.438;5.470;2022-08-25T16:25:43;7.07;;;2.60;;
13720;SDS011;6932;51.438;5.470;2022-08-25T16:28:11;4.00;;;2.50;;
13720;SDS011;6932;51.438;5.470;2022-08-25T16:30:39;6.72;;;2.40;;
13720;SDS011;6932;51.438;5.470;2022-08-25T16:33:09;6.13;;;2.75;;
13720;SDS011;6932;51.438;5.470;2022-08-25T16:35:34;6.93;;;2.78;;
13720;SDS011;6932;51.438;5.470;2022-08-25T16:38:00;5.25;;;2.65;;
13720;SDS011;6932;51.438;5.470;2022-08-25T16:40:28;6.25;;;2.50;;
13720;SDS011;6932;51.438;5.470;2022-08-25T16:42:55;6.88;;;3.00;;
13720;SDS011;6932;51.438;5.470;2022-08-25T16:45:21;7.40;;;2.88;;
13720;SDS011;6932;51.438;5.470;2022-08-25T16:47:47;3.85;;;2.80;;
13720;SDS011;6932;51.438;5.470;2022-08-25T16:50:14;4.90;;;2.80;;
13720;SDS011;6932;51.438;5.470;2022-08-25T16:52:41;4.40;;;2.80;;
13720;SDS011;6932;51.438;5.470;2022-08-25T16:55:26;7.13;;;2.70;;
13720;SDS011;6932;51.438;5.470;2022-08-25T16:57:56;4.07;;;2.80;;
13720;SDS011;6932;51.438;5.470;2022-08-25T17:00:25;6.07;;;2.50;;
13720;SDS011;6932;51.438;5.470;2022-08-25T17:02:54;3.55;;;2.60;;
13720;SDS011;6932;51.438;5.470;2022-08-25T17:05:26;3.63;;;2.80;;
13720;SDS011;6932;51.438;5.470;2022-08-25T17:07:53;4.25;;;2.80;;
13720;SDS011;6932;51.438;5.470;2022-08-25T17:10:41;4.63;;;3.03;;
13720;SDS011;6932;51.438;5.470;2022-08-25T17:13:08;4.85;;;3.00;;
13720;SDS011;6932;51.438;5.470;2022-08-25T17:15:42;3.60;;;2.88;;
13720;SDS011;6932;51.438;5.470;2022-08-25T17:18:10;5.75;;;2.80;;
13720;SDS011;6932;51.438;5.470;2022-08-25T17:20:37;6.63;;;2.50;;
13720;SDS011;6932;51.438;5.470;2022-08-25T17:23:05;5.78;;;2.70;;
13720;SDS011;6932;51.438;5.470;2022-08-25T17:25:34;3.50;;;2.25;;
13720;SDS011;6932;51.438;5.470;2022-08-25T17:28:01;4.47;;;2.60;;